Terminal Aerodrome Forecast
Issued by NWS Cleveland, OH

Home | Current Version | Previous Version | Text Only | Print | Product List | Glossary Off
Versions: 1 2 3 4 5 6 7 8 9 10 11 12 13 14 15 16 17 18 19 20 21 22 23 24 25 26 27 28

000
FTUS41 KCLE 242104 AAB
TAFCLE
TAF AMD
KCLE 242104Z 2421/2524 33012G20KT P6SM BKN025 BKN035
      TEMPO 2500/2501 -SHRA BKN015
     FM250200 35010KT P6SM BKN035
     FM250500 35010KT P6SM BKN030
     FM251800 36010KT P6SM SCT030=

USA.gov is the U.S. government's official web portal to all federal, state and local government web resources and services.